createdAt,value
2018-07-21T00:00:23.189Z,22.10
2018-07-21T00:02:51.941Z,22.10
2018-07-21T00:05:20.491Z,22.00
2018-07-21T00:07:49.125Z,22.00
2018-07-21T00:10:18.325Z,22.00
2018-07-21T00:12:46.886Z,22.00
2018-07-21T00:15:15.437Z,22.00
2018-07-21T00:17:43.973Z,22.00
2018-07-21T00:20:12.509Z,22.00
2018-07-21T00:22:41.037Z,22.00
2018-07-21T00:25:10.337Z,22.00
2018-07-21T00:27:39.954Z,21.90
2018-07-21T00:30:09.885Z,21.90
2018-07-21T00:32:39.109Z,21.90
2018-07-21T00:35:10.279Z,21.90
2018-07-21T00:37:38.837Z,21.90
2018-07-21T00:40:07.384Z,21.90
2018-07-21T00:42:35.927Z,21.90
2018-07-21T00:45:04.773Z,21.80
2018-07-21T00:47:33.323Z,21.80
2018-07-21T00:50:02.756Z,21.80
2018-07-21T00:52:31.306Z,21.80
2018-07-21T00:54:59.842Z,21.80
2018-07-21T00:57:28.363Z,21.80
2018-07-21T00:59:56.998Z,21.80
2018-07-21T01:02:25.530Z,21.80
2018-07-21T01:04:54.049Z,21.70
2018-07-21T01:07:23.597Z,21.80
2018-07-21T01:09:52.758Z,21.70
2018-07-21T01:12:21.273Z,21.70
2018-07-21T01:14:53.701Z,21.70
2018-07-21T01:17:24.384Z,21.70
2018-07-21T01:25:16.505Z,21.70
2018-07-21T01:27:45.393Z,21.70
2018-07-21T01:30:15.296Z,21.60
2018-07-21T01:32:46.326Z,21.60
2018-07-21T01:35:17.161Z,21.60
2018-07-21T01:37:45.740Z,21.60
2018-07-21T01:40:25.714Z,21.60
2018-07-21T01:43:04.116Z,21.60
2018-07-21T01:45:36.018Z,21.60
2018-07-21T01:48:11.946Z,21.50
2018-07-21T01:50:42.731Z,21.50
2018-07-21T01:53:16.621Z,21.50
2018-07-21T01:55:47.713Z,21.50
2018-07-21T01:58:20.810Z,21.50
2018-07-21T02:00:55.365Z,21.50
2018-07-21T02:03:23.974Z,21.50
2018-07-21T02:05:52.536Z,21.50
2018-07-21T02:08:22.454Z,21.40
2018-07-21T02:10:54.111Z,21.40
2018-07-21T02:13:23.551Z,21.40
2018-07-21T02:15:52.727Z,21.30
2018-07-21T02:18:21.409Z,21.30
2018-07-21T02:20:49.952Z,21.30
2018-07-21T02:23:18.621Z,21.30
2018-07-21T02:25:48.093Z,21.20
2018-07-21T02:28:16.649Z,21.20
2018-07-21T02:30:48.599Z,21.20
2018-07-21T02:33:20.133Z,21.10
2018-07-21T02:35:50.438Z,21.10
2018-07-21T02:38:20.432Z,21.10
2018-07-21T02:40:49.170Z,21.00
2018-07-21T02:43:23.864Z,21.00
2018-07-21T02:45:52.453Z,21.00
2018-07-21T02:48:20.982Z,21.00
2018-07-21T02:50:49.623Z,21.00
2018-07-21T02:53:18.189Z,20.90
2018-07-21T02:55:47.415Z,20.90
2018-07-21T02:58:16.205Z,20.80
2018-07-21T03:00:44.750Z,20.70
2018-07-21T03:03:13.257Z,20.70
2018-07-21T03:05:41.822Z,20.70
2018-07-21T03:08:10.426Z,20.70
2018-07-21T03:10:39.774Z,20.60
2018-07-21T03:13:08.349Z,20.60
2018-07-21T03:15:36.857Z,20.60
2018-07-21T03:18:05.410Z,20.50
2018-07-21T03:20:33.929Z,20.50
2018-07-21T03:23:02.497Z,20.40
2018-07-21T03:25:31.731Z,20.40
2018-07-21T03:28:00.293Z,20.40
2018-07-21T03:30:28.843Z,20.40
2018-07-21T03:32:57.462Z,20.40
2018-07-21T03:35:25.972Z,20.40
2018-07-21T03:37:54.514Z,20.40
2018-07-21T03:40:23.727Z,20.30
2018-07-21T03:42:52.266Z,20.30
2018-07-21T03:45:20.869Z,20.30
2018-07-21T03:47:50.054Z,20.20
2018-07-21T03:50:19.634Z,20.20
2018-07-21T03:52:48.462Z,20.20
2018-07-21T03:55:17.006Z,20.20
2018-07-21T03:57:45.793Z,20.20
2018-07-21T04:00:15.167Z,20.20
2018-07-21T04:02:44.653Z,20.10
2018-07-21T04:05:13.919Z,20.20
2018-07-21T04:07:42.500Z,20.20
2018-07-21T04:10:11.038Z,20.20
2018-07-21T04:12:39.566Z,20.20
2018-07-21T04:15:15.604Z,20.20
2018-07-21T04:17:46.036Z,20.20
2018-07-21T04:20:19.712Z,20.20
2018-07-21T04:22:50.405Z,20.10
2018-07-21T04:25:32.442Z,20.10
2018-07-21T04:28:13.701Z,20.10
2018-07-21T04:30:56.199Z,20.10
2018-07-21T04:33:30.717Z,20.10
2018-07-21T04:36:01.450Z,20.10
2018-07-21T04:41:06.401Z,20.20
2018-07-21T04:43:41.992Z,20.10
2018-07-21T04:46:15.964Z,20.10
2018-07-21T04:48:46.656Z,20.10
2018-07-21T04:51:32.518Z,20.10
2018-07-21T04:54:10.900Z,20.10
2018-07-21T04:56:50.493Z,20.00
2018-07-21T04:59:20.497Z,20.00
2018-07-21T05:01:51.467Z,20.00
2018-07-21T05:04:21.106Z,20.00
2018-07-21T05:06:50.521Z,20.00
2018-07-21T05:09:24.652Z,20.10
2018-07-21T05:11:54.753Z,20.00
2018-07-21T05:14:30.258Z,20.00
2018-07-21T05:17:02.287Z,20.10
2018-07-21T05:19:38.462Z,20.10
2018-07-21T05:22:14.848Z,20.10
2018-07-21T05:24:50.112Z,20.10
2018-07-21T05:27:24.080Z,20.10
2018-07-21T05:29:53.708Z,20.10
2018-07-21T05:32:32.016Z,20.20
2018-07-21T05:35:17.384Z,20.20
2018-07-21T05:37:54.999Z,20.20
2018-07-21T05:40:23.561Z,20.30
2018-07-21T05:43:02.969Z,20.30
2018-07-21T05:45:43.549Z,20.30
2018-07-21T05:48:19.173Z,20.40
2018-07-21T05:50:53.975Z,20.40
2018-07-21T05:53:26.916Z,20.40
2018-07-21T05:55:59.861Z,20.40
2018-07-21T05:58:42.265Z,20.50
2018-07-21T06:01:12.870Z,20.50
2018-07-21T06:03:41.933Z,20.60
2018-07-21T06:06:11.556Z,20.60
2018-07-21T06:08:40.447Z,20.60
2018-07-21T06:11:12.561Z,20.70
2018-07-21T06:13:50.679Z,20.70
2018-07-21T06:16:21.307Z,20.70
2018-07-21T06:18:50.561Z,20.70
2018-07-21T06:21:19.132Z,20.80
2018-07-21T06:23:47.673Z,20.80
2018-07-21T06:26:16.241Z,20.80
2018-07-21T06:28:45.339Z,20.90
2018-07-21T06:31:14.431Z,20.90
2018-07-21T06:33:42.988Z,21.00
2018-07-21T06:36:11.902Z,21.10
2018-07-21T06:38:40.424Z,21.30
2018-07-21T06:41:09.377Z,21.50
2018-07-21T06:43:38.046Z,21.70
2018-07-21T06:46:06.682Z,21.70
2018-07-21T06:48:35.185Z,21.70
2018-07-21T06:51:03.714Z,21.80
2018-07-21T06:53:32.264Z,21.90
2018-07-21T06:56:00.834Z,22.00
2018-07-21T06:58:29.706Z,22.10
2018-07-21T07:00:58.209Z,22.10
2018-07-21T07:03:26.729Z,22.20
2018-07-21T07:05:55.317Z,22.30
2018-07-21T07:08:31.257Z,22.30
2018-07-21T07:10:59.841Z,22.30
2018-07-21T07:13:28.369Z,22.40
2018-07-21T07:15:58.757Z,22.30
2018-07-21T07:18:28.852Z,22.20
2018-07-21T07:21:00.722Z,22.10
2018-07-21T07:23:31.450Z,22.10
2018-07-21T07:25:59.966Z,22.10
2018-07-21T07:28:32.597Z,22.10
2018-07-21T07:31:01.134Z,22.20
2018-07-21T07:33:30.108Z,22.20
2018-07-21T07:36:03.254Z,22.30
2018-07-21T07:38:31.781Z,22.50
2018-07-21T07:41:00.303Z,22.60
2018-07-21T07:43:30.665Z,22.80
2018-07-21T07:45:59.309Z,23.00
2018-07-21T07:48:29.185Z,23.10
2018-07-21T07:50:58.376Z,23.30
2018-07-21T07:53:27.751Z,23.40
2018-07-21T07:55:56.364Z,23.50
2018-07-21T07:58:24.910Z,23.80
2018-07-21T08:00:53.460Z,23.80
2018-07-21T08:03:22.010Z,24.00
2018-07-21T08:05:50.613Z,24.10
2018-07-21T08:08:20.521Z,24.20
2018-07-21T08:10:51.709Z,24.20
2018-07-21T08:13:32.790Z,24.20
2018-07-21T08:16:13.779Z,24.30
2018-07-21T08:18:46.761Z,24.40
2018-07-21T08:21:26.539Z,24.40
2018-07-21T08:23:55.190Z,24.50
2018-07-21T08:26:24.097Z,24.50
2018-07-21T08:28:53.617Z,24.50
2018-07-21T08:31:29.295Z,24.60
2018-07-21T08:34:06.213Z,24.60
2018-07-21T08:36:39.290Z,24.60
2018-07-21T08:39:09.320Z,24.70
2018-07-21T08:41:37.839Z,24.80
2018-07-21T08:44:09.358Z,24.90
2018-07-21T08:46:39.459Z,24.90
2018-07-21T08:49:07.957Z,25.10
2018-07-21T08:51:48.136Z,25.20
2018-07-21T08:54:19.671Z,25.20
2018-07-21T08:56:59.807Z,25.20
2018-07-21T08:59:28.289Z,25.30
2018-07-21T09:01:57.753Z,25.40
2018-07-21T09:04:28.001Z,25.40
2018-07-21T09:06:57.206Z,25.40
2018-07-21T09:09:25.708Z,25.50
2018-07-21T09:11:54.249Z,25.60
2018-07-21T09:14:22.857Z,25.60
2018-07-21T09:16:52.047Z,25.60
2018-07-21T09:19:20.862Z,25.60
2018-07-21T09:21:49.397Z,25.70
2018-07-21T09:24:18.015Z,25.80
2018-07-21T09:26:46.756Z,25.90
2018-07-21T09:29:15.688Z,26.00
2018-07-21T09:31:44.226Z,26.10
2018-07-21T09:34:12.779Z,26.20
2018-07-21T09:36:41.453Z,26.30
2018-07-21T09:39:11.253Z,26.30
2018-07-21T09:41:40.776Z,26.40
2018-07-21T09:44:10.215Z,26.50
2018-07-21T09:46:38.935Z,26.60
2018-07-21T09:49:07.554Z,26.60
2018-07-21T09:51:36.946Z,26.70
2018-07-21T09:54:06.119Z,26.80
2018-07-21T09:56:35.593Z,26.80
2018-07-21T09:59:05.576Z,26.80
2018-07-21T10:01:34.335Z,26.80
2018-07-21T10:04:03.481Z,26.80
2018-07-21T10:06:32.999Z,26.70
2018-07-21T10:09:02.496Z,26.80
2018-07-21T10:11:31.896Z,26.80
2018-07-21T10:14:14.592Z,26.90
2018-07-21T10:16:43.197Z,26.90
2018-07-21T10:19:15.984Z,26.90
2018-07-21T10:21:47.846Z,27.00
2018-07-21T10:25:23.996Z,27.00
2018-07-21T10:28:10.426Z,27.10
2018-07-21T10:30:39.099Z,27.20
2018-07-21T10:33:07.669Z,27.20
2018-07-21T10:35:36.249Z,27.20
2018-07-21T10:38:06.357Z,27.20
2018-07-21T10:40:35.843Z,27.20
2018-07-21T10:43:04.483Z,27.20
2018-07-21T10:45:38.834Z,27.20
2018-07-21T10:48:07.544Z,27.30
2018-07-21T10:50:36.133Z,27.20
2018-07-21T10:53:04.777Z,27.30
2018-07-21T10:55:33.409Z,27.40
2018-07-21T10:58:01.961Z,27.50
2018-07-21T11:00:31.459Z,27.50
2018-07-21T11:03:00.049Z,27.50
2018-07-21T11:05:28.902Z,27.50
2018-07-21T11:07:57.617Z,27.50
2018-07-21T11:10:26.258Z,27.50
2018-07-21T11:12:54.876Z,27.50
2018-07-21T11:15:23.519Z,27.70
2018-07-21T11:17:52.039Z,27.80
2018-07-21T11:20:21.450Z,27.90
2018-07-21T11:22:50.036Z,28.10
2018-07-21T11:25:18.726Z,28.20
2018-07-21T11:27:47.521Z,28.30
2018-07-21T11:30:19.774Z,28.30
2018-07-21T11:32:49.063Z,28.40
2018-07-21T11:35:17.724Z,28.50
2018-07-21T11:37:46.318Z,28.40
2018-07-21T11:40:14.889Z,28.50
2018-07-21T11:42:44.276Z,28.50
2018-07-21T11:45:14.437Z,28.60
2018-07-21T11:47:42.964Z,28.60
2018-07-21T11:50:11.520Z,28.60
2018-07-21T11:52:40.111Z,28.70
2018-07-21T11:55:08.642Z,28.70
2018-07-21T11:57:37.184Z,28.80
2018-07-21T12:00:05.761Z,29.00
2018-07-21T12:02:35.777Z,29.10
2018-07-21T12:05:05.399Z,29.10
2018-07-21T12:07:33.969Z,29.20
2018-07-21T12:10:03.171Z,29.30
2018-07-21T12:12:31.710Z,29.30
2018-07-21T12:15:01.002Z,29.30
2018-07-21T12:17:29.619Z,29.40
2018-07-21T12:19:58.153Z,29.50
2018-07-21T12:22:47.903Z,29.60
2018-07-21T12:25:28.817Z,29.70
2018-07-21T12:27:57.489Z,29.80
2018-07-21T12:30:31.602Z,29.80
2018-07-21T12:33:03.799Z,29.80
2018-07-21T12:35:43.363Z,29.80
2018-07-21T12:38:19.805Z,29.90
2018-07-21T12:40:54.427Z,29.90
2018-07-21T12:43:27.442Z,29.90
2018-07-21T12:45:56.258Z,30.00
2018-07-21T12:48:30.154Z,30.00
2018-07-21T12:50:59.941Z,30.10
2018-07-21T12:53:29.963Z,30.00
2018-07-21T12:55:59.076Z,30.00
2018-07-21T12:58:29.070Z,30.00
2018-07-21T13:01:12.093Z,30.10
2018-07-21T13:03:48.190Z,30.10
2018-07-21T13:06:20.136Z,30.20
2018-07-21T13:08:54.107Z,30.30
2018-07-21T13:14:05.805Z,30.30
2018-07-21T13:16:36.519Z,30.30
2018-07-21T13:19:05.314Z,30.30
2018-07-21T13:21:36.141Z,30.30
2018-07-21T13:24:08.305Z,30.30
2018-07-21T13:26:38.030Z,30.20
2018-07-21T13:29:12.125Z,30.10
2018-07-21T13:31:41.695Z,30.10
2018-07-21T13:34:20.295Z,30.10
2018-07-21T13:36:54.825Z,30.00
2018-07-21T13:39:37.750Z,30.00
2018-07-21T13:42:11.712Z,30.20
2018-07-21T13:44:47.911Z,30.20
2018-07-21T13:47:19.411Z,30.20
2018-07-21T13:49:50.162Z,30.20
2018-07-21T13:52:38.108Z,30.30
2018-07-21T13:55:08.486Z,30.20
2018-07-21T13:57:41.105Z,30.10
2018-07-21T14:00:17.399Z,30.10
2018-07-21T14:02:56.850Z,30.00
2018-07-21T14:05:36.739Z,29.90
2018-07-21T14:08:14.004Z,29.80
2018-07-21T14:10:43.049Z,29.70
2018-07-21T14:13:13.101Z,29.70
2018-07-21T14:15:44.874Z,29.70
2018-07-21T14:18:15.168Z,29.60
2018-07-21T14:20:49.613Z,29.50
2018-07-21T14:23:25.740Z,29.40
2018-07-21T14:25:58.054Z,29.20
2018-07-21T14:28:31.129Z,29.00
2018-07-21T14:31:01.709Z,28.90
2018-07-21T14:33:31.989Z,28.80
2018-07-21T14:36:05.366Z,28.70
2018-07-21T14:38:34.521Z,28.60
2018-07-21T14:41:03.041Z,28.40
2018-07-21T14:43:31.589Z,28.30
2018-07-21T14:46:01.001Z,28.10
2018-07-21T14:48:29.577Z,27.90
2018-07-21T14:50:58.441Z,27.70
2018-07-21T14:53:28.119Z,27.60
2018-07-21T14:55:57.765Z,27.50
2018-07-21T14:58:26.919Z,27.40
2018-07-21T15:00:55.473Z,27.30
2018-07-21T15:03:24.027Z,27.20
2018-07-21T15:05:52.861Z,27.10
2018-07-21T15:08:22.105Z,27.10
2018-07-21T15:10:50.617Z,27.00
2018-07-21T15:13:19.982Z,26.90
2018-07-21T15:15:49.358Z,26.90
2018-07-21T15:18:18.989Z,26.90
2018-07-21T15:20:48.356Z,26.80
2018-07-21T15:23:16.868Z,26.70
2018-07-21T15:25:46.213Z,26.70
2018-07-21T15:28:14.765Z,26.60
2018-07-21T15:30:43.374Z,26.60
2018-07-21T15:33:12.473Z,26.50
2018-07-21T15:35:41.441Z,26.50
2018-07-21T15:38:10.401Z,26.40
2018-07-21T15:40:39.044Z,26.40
2018-07-21T15:43:07.593Z,26.40
2018-07-21T15:45:37.479Z,26.40
2018-07-21T15:48:06.001Z,26.40
2018-07-21T15:50:35.686Z,26.30
2018-07-21T15:53:04.230Z,26.30
2018-07-21T15:55:33.517Z,26.30
2018-07-21T15:58:02.629Z,26.20
2018-07-21T16:00:31.267Z,26.20
2018-07-21T16:02:59.782Z,26.20
2018-07-21T16:05:28.335Z,26.20
2018-07-21T16:07:56.849Z,26.10
2018-07-21T16:10:25.357Z,26.00
2018-07-21T16:12:54.428Z,26.00
2018-07-21T16:15:23.090Z,25.90
2018-07-21T16:17:51.583Z,25.90
2018-07-21T16:20:20.101Z,25.90
2018-07-21T16:22:48.651Z,25.90
2018-07-21T16:25:18.102Z,25.90
2018-07-21T16:27:47.966Z,25.90
2018-07-21T16:30:17.057Z,25.70
2018-07-21T16:32:45.653Z,25.70
2018-07-21T16:35:14.200Z,25.70
2018-07-21T16:37:42.704Z,25.70
2018-07-21T16:40:11.263Z,25.70
2018-07-21T16:42:39.769Z,25.70
2018-07-21T16:45:08.307Z,25.80
2018-07-21T16:47:36.849Z,25.80
2018-07-21T16:50:05.410Z,25.70
2018-07-21T16:52:33.946Z,25.70
2018-07-21T16:55:02.561Z,25.60
2018-07-21T16:57:32.865Z,25.60
2018-07-21T17:00:02.189Z,25.50
2018-07-21T17:02:31.490Z,25.40
2018-07-21T17:05:00.181Z,25.40
2018-07-21T17:07:29.547Z,25.40
2018-07-21T17:09:58.889Z,25.40
2018-07-21T17:12:28.037Z,25.30
2018-07-21T17:14:56.667Z,25.30
2018-07-21T17:17:25.208Z,25.20
2018-07-21T17:19:53.724Z,25.30
2018-07-21T17:22:22.294Z,25.20
2018-07-21T17:24:50.836Z,25.20
2018-07-21T17:27:20.594Z,25.10
2018-07-21T17:29:49.178Z,25.10
2018-07-21T17:32:17.680Z,25.10
2018-07-21T17:34:46.272Z,25.10
2018-07-21T17:37:15.361Z,25.10
2018-07-21T17:39:44.500Z,25.20
2018-07-21T17:42:13.917Z,25.10
2018-07-21T17:44:43.787Z,25.10
2018-07-21T17:47:19.551Z,25.00
2018-07-21T17:49:49.371Z,24.90
2018-07-21T17:52:25.657Z,24.90
2018-07-21T17:55:05.473Z,24.80
2018-07-21T17:57:36.471Z,24.80
2018-07-21T18:00:05.686Z,24.70
2018-07-21T18:02:35.063Z,24.70
2018-07-21T18:05:03.858Z,24.70
2018-07-21T18:07:32.396Z,24.60
2018-07-21T18:10:00.911Z,24.60
2018-07-21T18:12:29.426Z,24.60
2018-07-21T18:15:06.798Z,24.50
2018-07-21T18:17:35.311Z,24.50
2018-07-21T18:22:52.212Z,24.50
2018-07-21T18:25:20.806Z,24.50
2018-07-21T18:27:50.430Z,24.40
2018-07-21T18:30:25.586Z,24.40
2018-07-21T18:35:36.567Z,24.30
2018-07-21T18:38:05.299Z,24.20
2018-07-21T18:40:33.836Z,24.20
2018-07-21T18:43:03.464Z,24.20
2018-07-21T18:45:31.988Z,24.20
2018-07-21T18:48:00.513Z,24.00
2018-07-21T18:50:30.845Z,24.00
2018-07-21T18:52:59.361Z,24.00
2018-07-21T18:55:28.017Z,23.90
2018-07-21T18:57:56.598Z,23.90
2018-07-21T19:00:25.141Z,23.80
2018-07-21T19:02:53.722Z,23.80
2018-07-21T19:05:23.581Z,23.70
2018-07-21T19:07:52.719Z,23.70
2018-07-21T19:10:21.294Z,23.70
2018-07-21T19:12:50.511Z,23.60
2018-07-21T19:17:25.417Z,23.60
2018-07-21T19:19:59.266Z,23.50
2018-07-21T19:22:27.817Z,23.50
2018-07-21T19:24:57.592Z,23.50
2018-07-21T19:27:34.517Z,23.40
2018-07-21T19:30:08.932Z,23.40
2018-07-21T19:32:54.392Z,23.40
2018-07-21T19:35:32.031Z,23.40
2018-07-21T19:38:02.744Z,23.30
2018-07-21T19:40:31.308Z,23.30
2018-07-21T19:43:06.451Z,23.20
2018-07-21T19:45:40.254Z,23.20
2018-07-21T19:48:16.029Z,23.10
2018-07-21T19:50:45.049Z,23.10
2018-07-21T19:53:16.950Z,23.10
2018-07-21T19:56:09.494Z,23.00
2018-07-21T19:58:49.639Z,23.00
2018-07-21T20:01:21.635Z,22.90
2018-07-21T20:06:35.325Z,22.90
2018-07-21T20:09:08.877Z,22.80
2018-07-21T20:11:43.608Z,22.80
2018-07-21T20:14:13.301Z,22.70
2018-07-21T20:16:43.801Z,22.70
2018-07-21T20:19:12.411Z,22.70
2018-07-21T20:21:41.854Z,22.60
2018-07-21T20:24:13.047Z,22.50
2018-07-21T20:26:43.461Z,24.10
2018-07-21T20:29:12.766Z,22.50
2018-07-21T20:31:41.265Z,22.40
2018-07-21T20:34:11.851Z,22.40
2018-07-21T20:36:58.781Z,22.40
2018-07-21T20:39:31.247Z,22.30
2018-07-21T20:42:05.993Z,22.30
2018-07-21T20:44:37.185Z,22.20
2018-07-21T20:47:11.327Z,22.20
2018-07-21T20:49:45.194Z,22.10
2018-07-21T20:52:20.961Z,22.10
2018-07-21T20:57:30.671Z,22.00
2018-07-21T21:00:00.086Z,21.90
2018-07-21T21:05:32.842Z,21.80
2018-07-21T21:08:02.278Z,21.70
2018-07-21T21:10:31.730Z,21.70
2018-07-21T21:13:19.905Z,21.70
2018-07-21T21:15:51.301Z,21.70
2018-07-21T21:18:19.845Z,21.60
2018-07-21T21:20:48.394Z,21.60
2018-07-21T21:23:22.977Z,21.50
2018-07-21T21:25:51.509Z,21.50
2018-07-21T21:28:23.525Z,21.50
2018-07-21T21:30:52.057Z,21.50
2018-07-21T21:33:20.612Z,21.40
2018-07-21T21:35:50.840Z,21.40
2018-07-21T21:38:24.161Z,21.30
2018-07-21T21:40:58.063Z,21.30
2018-07-21T21:43:26.631Z,21.30
2018-07-21T21:45:55.932Z,21.30
2018-07-21T21:48:24.584Z,21.20
2018-07-21T21:50:53.114Z,21.20
2018-07-21T21:53:22.471Z,21.20
2018-07-21T21:55:52.028Z,21.20
2018-07-21T21:58:20.885Z,21.10
2018-07-21T22:01:09.093Z,21.10
2018-07-21T22:03:39.600Z,21.10
2018-07-21T22:06:08.137Z,21.00
2018-07-21T22:08:36.665Z,21.00
2018-07-21T22:11:05.410Z,20.90
2018-07-21T22:13:33.954Z,20.90
2018-07-21T22:16:02.499Z,20.90
2018-07-21T22:18:32.412Z,20.80
2018-07-21T22:21:00.970Z,20.70
2018-07-21T22:23:29.509Z,20.70
2018-07-21T22:25:58.028Z,20.70
2018-07-21T22:28:26.532Z,20.60
2018-07-21T22:30:55.110Z,20.60
2018-07-21T22:33:23.655Z,20.60
2018-07-21T22:35:52.215Z,20.60
2018-07-21T22:38:21.802Z,20.60
2018-07-21T22:40:50.313Z,20.60
2018-07-21T22:43:18.901Z,20.50
2018-07-21T22:45:47.420Z,20.40
2018-07-21T22:48:15.969Z,20.40
2018-07-21T22:50:44.603Z,20.40
2018-07-21T22:53:13.118Z,20.30
2018-07-21T22:55:41.651Z,20.30
2018-07-21T22:58:10.184Z,20.20
2018-07-21T23:00:38.752Z,20.20
2018-07-21T23:03:07.664Z,20.20
2018-07-21T23:05:37.471Z,20.20
2018-07-21T23:08:06.358Z,20.10
2018-07-21T23:10:34.869Z,20.20
2018-07-21T23:13:03.449Z,20.10
2018-07-21T23:15:31.995Z,20.10
2018-07-21T23:18:00.547Z,20.10
2018-07-21T23:20:30.296Z,20.00
2018-07-21T23:22:58.850Z,20.00
2018-07-21T23:25:27.388Z,20.00
2018-07-21T23:27:55.937Z,20.00
2018-07-21T23:30:24.488Z,20.00
2018-07-21T23:32:52.978Z,20.00
2018-07-21T23:35:21.510Z,20.00
2018-07-21T23:37:50.040Z,20.00
2018-07-21T23:40:18.585Z,20.00
2018-07-21T23:42:47.097Z,20.00
2018-07-21T23:45:15.636Z,20.00
2018-07-21T23:47:44.197Z,20.00
2018-07-21T23:50:12.737Z,20.00
2018-07-21T23:52:41.265Z,19.90
2018-07-21T23:55:10.521Z,19.90
2018-07-21T23:57:39.242Z,19.90
